Ocean Phoenix — KCAK — position and weather

sailwx.info

Track history (hours):
 
Tides and Currents Weather Stations Pressure Air Temp Water Temp Dewpoint Dewpoint Depression Visibility Wind Speed Wind Dir Waves Ship Positions

Ocean Phoenix

Owner: PHOENIX PROCESSOR LTD. PARTNERSHIP, SEATTLE, WA. More information available from US FCC via Universal Licensing System and Coast Guard Vessel Documentation Center.

Last reported at 2015-Apr-09 08:19 UTC. Time now 2015-May-23 08:42 UTC.
Position N 47°38' W 122°23'.
Warning: this ship's position is 44 days out of date.

Length 206 m; draft 6.6 m.

Type: Other ship. MMSI: 366588000.

Date/timePositionNaut miles runAvg speedWind from/ knotsBaromVisibWave heightAir tempDewpointWater temp
2015-Apr-09 08:19N 47°38' W 122°23'0 0.0
2015-Apr-09 07:31N 47°38' W 122°23'0 0.0
2015-Apr-09 06:31N 47°38' W 122°23'0 0.0
2015-Apr-09 05:31N 47°38' W 122°23'0 0.0
2015-Apr-09 04:25N 47°38' W 122°23'0 0.0
2015-Apr-09 03:31N 47°38' W 122°23'0 0.0
2015-Apr-09 02:31N 47°38' W 122°23'0 0.0
2015-Apr-09 01:31N 47°38' W 122°23'0 0.0
2015-Apr-09 00:31N 47°38' W 122°23'0 0.0
2015-Apr-08 23:31N 47°38' W 122°23'0 0.3
2015-Apr-08 22:33N 47°38' W 122°23'5 5.1
2015-Apr-08 21:33N 47°41' W 122°28'1413.9
2015-Apr-08 20:33N 47°55' W 122°30'1212.2
2015-Apr-08 19:33N 48°06' W 122°40'1111.5
2015-Apr-08 18:33N 48°11' W 122°55'1312.8
2015-Apr-08 17:32N 48°12' W 123°14'1111.2
2015-Apr-08 16:33N 48°12' W 123°31'7 7.0
2015-Apr-08 15:33N 48°13' W 123°41'1414.3
2015-Apr-08 14:33N 48°15' W 124°02'1514.9
2015-Apr-08 13:34N 48°22' W 124°22'1514.9
2015-Apr-08 12:34N 48°28' W 124°43'1514.9
2015-Apr-08 11:33N 48°28' W 125°05'1414.5
2015-Apr-08 10:34N 48°29' W 125°27'1414.2
2015-Apr-08 09:33N 48°29' W 125°48'1514.9
2015-Apr-08 08:33N 48°29' W 126°11'1514.9
2015-Apr-08 07:33N 48°34' W 126°32'1515.1
2015-Apr-08 06:32N 48°41' W 126°53'  
Track history (hours):
 
Tides and Currents Weather Stations Pressure Air Temp Water Temp Dewpoint Dewpoint Depression Visibility Wind Speed Wind Dir Waves Ship Positions

Ocean Phoenix

Owner: PHOENIX PROCESSOR LTD. PARTNERSHIP, SEATTLE, WA. More information available from US FCC via Universal Licensing System and Coast Guard Vessel Documentation Center.

Last reported at 2015-Apr-09 08:19 UTC. Time now 2015-May-23 08:42 UTC.
Position N 47°38' W 122°23'.
Warning: this ship's position is 44 days out of date.

Length 206 m; draft 6.6 m.

Type: Other ship. MMSI: 366588000.

Date/timePositionNaut miles runAvg speedWind from/ knotsBaromVisibWave heightAir tempDewpointWater temp
2015-Apr-09 08:19N 47°38' W 122°23'0 0.0
2015-Apr-09 07:31N 47°38' W 122°23'0 0.0
2015-Apr-09 06:31N 47°38' W 122°23'0 0.0
2015-Apr-09 05:31N 47°38' W 122°23'0 0.0
2015-Apr-09 04:25N 47°38' W 122°23'0 0.0
2015-Apr-09 03:31N 47°38' W 122°23'0 0.0
2015-Apr-09 02:31N 47°38' W 122°23'0 0.0
2015-Apr-09 01:31N 47°38' W 122°23'0 0.0
2015-Apr-09 00:31N 47°38' W 122°23'0 0.0
2015-Apr-08 23:31N 47°38' W 122°23'0 0.3
2015-Apr-08 22:33N 47°38' W 122°23'5 5.1
2015-Apr-08 21:33N 47°41' W 122°28'1413.9
2015-Apr-08 20:33N 47°55' W 122°30'1212.2
2015-Apr-08 19:33N 48°06' W 122°40'1111.5
2015-Apr-08 18:33N 48°11' W 122°55'1312.8
2015-Apr-08 17:32N 48°12' W 123°14'1111.2
2015-Apr-08 16:33N 48°12' W 123°31'7 7.0
2015-Apr-08 15:33N 48°13' W 123°41'1414.3
2015-Apr-08 14:33N 48°15' W 124°02'1514.9
2015-Apr-08 13:34N 48°22' W 124°22'1514.9
2015-Apr-08 12:34N 48°28' W 124°43'1514.9
2015-Apr-08 11:33N 48°28' W 125°05'1414.5
2015-Apr-08 10:34N 48°29' W 125°27'1414.2
2015-Apr-08 09:33N 48°29' W 125°48'1514.9
2015-Apr-08 08:33N 48°29' W 126°11'1514.9
2015-Apr-08 07:33N 48°34' W 126°32'1515.1
2015-Apr-08 06:32N 48°41' W 126°53'  

Dump ship's entire track history